Aviation Digital Data Service (ADDS)

Output produced by METARs form (2046 UTC 13 August 2020)
found at http://aviationweather.gov/metar/data/
 
Forecast for: EPDA (DARTOWEK NAVAL , PL)
Text: TAF EPDA 132000Z 1321/1406 07007KT CAVOK
Forecast period: 2100 UTC 13 August 2020 to 0600 UTC 14 August 2020
Forecast type: FROM: standard forecast or significant change
Winds: from the ENE (70 degrees) at 8 MPH (7 knots; 3.6 m/s)
Visibility: 6 or more miles (10+ km)
Ceiling: unknown
Clouds: missing
Weather: NSW  (no significant weather)